Time;durP1;ratioP1;P1;durP2;ratioP2;P2;SDS_P1;SDS_P2;PMS_P1;PMS_P2;Temp;Humidity;BMP_temperature;BMP_pressure;BME280_temperature;BME280_humidity;BME280_pressure;Samples;Min_cycle;Max_cycle;Signal;HPM_P1;HPM_P2
2021/05/08 00:00:28;;;;;;;6.63;1.52;;;;;;;2.89;51.17;101699.16;5003229;28;20030;-68
2021/05/08 00:02:53;;;;;;;5.68;1.95;;;;;;;2.84;51.47;101698.28;5000974;28;20061;-67
2021/05/08 00:05:19;;;;;;;4.82;1.80;;;;;;;2.81;51.40;101693.13;4987541;28;20282;-69
2021/05/08 00:07:44;;;;;;;4.03;2.00;;;;;;;2.84;51.39;101687.94;4991548;28;20038;-67
2021/05/08 00:10:14;;;;;;;7.80;2.22;;;;;;;2.80;51.33;101696.53;5002665;28;20326;-67
2021/05/08 00:12:40;;;;;;;8.45;2.55;;;;;;;2.61;51.96;101693.00;4987513;28;20029;-66
2021/05/08 00:15:08;;;;;;;8.48;2.22;;;;;;;2.54;52.13;101689.50;4987346;28;20100;-67
2021/05/08 00:17:33;;;;;;;4.18;2.20;;;;;;;2.47;52.11;101682.59;5003463;28;20030;-67
2021/05/08 00:19:59;;;;;;;2.80;1.50;;;;;;;2.57;51.93;101687.78;5003587;28;20097;-67
2021/05/08 00:22:24;;;;;;;7.60;2.35;;;;;;;2.62;51.84;101687.81;4991706;28;20034;-66
2021/05/08 00:24:50;;;;;;;7.30;2.00;;;;;;;2.63;52.08;101689.56;5002047;28;20061;-67
2021/05/08 00:27:15;;;;;;;6.45;2.45;;;;;;;2.66;52.24;101689.56;5004916;28;20459;-66
2021/05/08 00:29:41;;;;;;;7.05;2.33;;;;;;;2.66;52.40;101694.72;5006922;28;20065;-66
2021/05/08 00:32:06;;;;;;;5.43;2.28;;;;;;;2.70;51.92;101690.47;5000366;28;20115;-67
2021/05/08 00:34:32;;;;;;;4.15;2.00;;;;;;;2.67;51.71;101691.31;4986610;28;20151;-67
2021/05/08 00:36:57;;;;;;;6.15;1.55;;;;;;;2.65;51.62;101687.00;5002520;28;20038;-66
2021/05/08 00:39:23;;;;;;;10.85;2.70;;;;;;;2.71;51.18;101689.59;4989523;28;20655;-66
2021/05/08 00:41:49;;;;;;;8.00;2.53;;;;;;;2.59;51.57;101682.66;5004503;28;20516;-70
2021/05/08 00:44:15;;;;;;;8.25;3.50;;;;;;;2.62;51.85;101682.66;5005396;28;20400;-69
2021/05/08 00:46:42;;;;;;;8.32;2.40;;;;;;;2.57;51.93;101677.47;4974714;28;20037;-69
2021/05/08 00:49:09;;;;;;;9.63;2.17;;;;;;;2.51;51.94;101679.16;4985192;28;20025;-65
2021/05/08 00:51:36;;;;;;;9.25;2.95;;;;;;;2.58;51.48;101680.94;4998446;28;20029;-67
2021/05/08 00:54:02;;;;;;;5.57;2.47;;;;;;;2.52;51.47;101686.06;5004975;28;20394;-67
2021/05/08 00:56:28;;;;;;;6.95;2.08;;;;;;;2.47;51.71;101680.00;4989476;28;20029;-67
2021/05/08 00:58:54;;;;;;;13.15;3.08;;;;;;;2.51;51.49;101673.97;4999386;28;20037;-67
2021/05/08 01:01:20;;;;;;;6.38;2.60;;;;;;;2.40;51.60;101675.63;4973473;28;20043;-65
2021/05/08 01:03:46;;;;;;;9.70;2.08;;;;;;;2.41;51.70;101677.38;5003704;28;20041;-66
2021/05/08 01:06:13;;;;;;;6.15;2.63;;;;;;;2.51;51.65;101684.31;4986926;28;20522;-64
2021/05/08 01:08:42;;;;;;;3.30;2.38;;;;;;;2.44;51.91;101679.97;4987252;28;20030;-65
2021/05/08 01:11:08;;;;;;;3.22;2.08;;;;;;;2.35;51.97;101684.22;4988456;28;20034;-65
2021/05/08 01:13:35;;;;;;;6.10;2.63;;;;;;;2.38;51.89;101682.50;5004671;28;20041;-65
2021/05/08 01:16:00;;;;;;;4.13;1.88;;;;;;;2.34;51.82;101679.91;5004984;28;20372;-66
2021/05/08 01:18:28;;;;;;;6.82;2.40;;;;;;;2.24;52.02;101678.13;4984501;28;20032;-67
2021/05/08 01:20:53;;;;;;;2.13;1.60;;;;;;;2.31;51.86;101682.47;5003265;28;20084;-67
2021/05/08 01:23:19;;;;;;;15.82;2.40;;;;;;;2.35;52.09;101679.06;4986871;28;20033;-68
2021/05/08 01:25:45;;;;;;;6.75;2.85;;;;;;;2.31;51.88;101677.31;4988152;28;20029;-67
2021/05/08 01:28:11;;;;;;;9.18;2.65;;;;;;;2.31;51.94;101682.47;4982848;28;20034;-66
2021/05/08 01:30:41;;;;;;;4.88;1.98;;;;;;;2.33;52.20;101680.78;4971095;28;20037;-67
2021/05/08 01:33:12;;;;;;;5.80;2.45;;;;;;;2.35;52.72;101681.66;4985375;28;20034;-65
2021/05/08 01:35:38;;;;;;;5.65;2.08;;;;;;;2.48;52.47;101674.84;4989252;28;20034;-67
2021/05/08 01:38:04;;;;;;;3.65;2.15;;;;;;;2.65;52.43;101667.22;4983811;28;20113;-66
2021/05/08 01:40:37;;;;;;;5.75;2.00;;;;;;;2.63;52.80;101676.66;4987523;28;20112;-66
2021/05/08 01:43:07;;;;;;;11.98;3.05;;;;;;;2.69;53.06;101679.28;4976889;28;20030;-67
2021/05/08 01:45:32;;;;;;;12.10;2.13;;;;;;;2.87;52.96;101682.81;5005158;28;20059;-65
2021/05/08 01:48:03;;;;;;;10.85;2.30;;;;;;;2.95;53.00;101679.41;4982274;28;20041;-70
2021/05/08 01:50:30;;;;;;;8.23;2.80;;;;;;;3.06;52.76;101684.63;4985498;28;20376;-70
2021/05/08 01:52:56;;;;;;;4.95;2.35;;;;;;;3.22;51.96;101675.19;4988111;28;20038;-68
2021/05/08 01:55:27;;;;;;;6.93;2.78;;;;;;;3.13;51.87;101683.78;4984905;28;20434;-69
2021/05/08 01:57:57;;;;;;;5.25;2.78;;;;;;;2.92;52.43;101673.38;4987099;28;20491;-70
2021/05/08 02:00:32;;;;;;;;;;;;;;;2.89;52.18;101669.06;4984211;28;20041;-69
2021/05/08 02:02:59;;;;;;;11.77;2.67;;;;;;;2.77;52.89;101668.97;4985985;28;20431;-70
2021/05/08 02:05:33;;;;;;;7.75;2.95;;;;;;;2.54;53.67;101679.19;4986491;28;20030;-70
2021/05/08 02:08:06;;;;;;;8.50;2.42;;;;;;;2.62;53.02;101682.66;5000960;28;20068;-70
2021/05/08 02:10:36;;;;;;;7.80;3.33;;;;;;;2.60;53.00;101675.75;4986411;28;20037;-70
2021/05/08 02:13:06;;;;;;;4.88;2.75;;;;;;;2.66;52.59;101678.38;5001965;28;20040;-66
2021/05/08 02:15:33;;;;;;;3.40;2.22;;;;;;;2.63;52.80;101675.81;4988484;28;20036;-67
2021/05/08 02:18:00;;;;;;;5.65;2.40;;;;;;;2.64;52.61;101669.78;5005905;28;20025;-66
2021/05/08 02:20:31;;;;;;;13.52;2.70;;;;;;;2.56;52.91;101672.31;5001965;28;20041;-65
2021/05/08 02:22:59;;;;;;;11.82;3.78;;;;;;;2.63;52.55;101666.34;4982563;28;20042;-66
2021/05/08 02:25:26;;;;;;;7.90;2.97;;;;;;;2.43;53.21;101670.50;4984708;28;20127;-67
2021/05/08 02:27:53;;;;;;;8.27;3.78;;;;;;;2.48;53.08;101668.81;5001906;28;20045;-67
2021/05/08 02:30:30;;;;;;;10.38;2.88;;;;;;;2.50;52.99;101670.53;4981840;28;20109;-66
2021/05/08 02:32:55;;;;;;;13.45;3.67;;;;;;;2.42;53.15;101676.50;4996795;28;20060;-67
2021/05/08 02:35:22;;;;;;;8.38;4.03;;;;;;;2.14;53.95;101676.31;4986310;28;20029;-68
2021/05/08 02:37:49;;;;;;;9.80;3.72;;;;;;;2.20;54.08;101668.63;4984577;28;20118;-66
2021/05/08 02:40:18;;;;;;;7.45;3.08;;;;;;;2.26;53.74;101668.66;4968905;28;20033;-67
2021/05/08 02:42:45;;;;;;;10.23;3.60;;;;;;;2.20;53.93;101671.22;4998388;28;20117;-69
2021/05/08 02:45:11;;;;;;;13.38;4.13;;;;;;;2.31;53.58;101666.09;4988815;28;20042;-70
2021/05/08 02:47:39;;;;;;;8.43;3.63;;;;;;;2.35;53.34;101665.28;4986773;28;20037;-69
2021/05/08 02:50:06;;;;;;;9.13;3.08;;;;;;;2.29;53.34;101663.53;4998063;28;20049;-69
2021/05/08 02:52:33;;;;;;;11.38;4.07;;;;;;;2.21;53.72;101660.03;4985079;28;20466;-68
2021/05/08 02:54:58;;;;;;;7.05;3.88;;;;;;;1.90;55.02;101659.78;4984121;28;20454;-67
2021/05/08 02:57:24;;;;;;;11.43;3.80;;;;;;;2.13;54.16;101664.25;4983457;28;20045;-68
2021/05/08 02:59:50;;;;;;;6.32;4.40;;;;;;;2.22;53.58;101655.72;5002176;28;20060;-66
2021/05/08 03:02:15;;;;;;;8.90;4.15;;;;;;;2.11;54.04;101658.25;4988384;28;20063;-67
2021/05/08 03:04:41;;;;;;;8.48;3.15;;;;;;;2.12;53.88;101657.38;4986043;28;20125;-66
2021/05/08 03:07:06;;;;;;;7.88;3.47;;;;;;;2.18;53.95;101659.16;4999929;28;20033;-67
2021/05/08 03:09:32;;;;;;;8.30;3.70;;;;;;;1.86;54.77;101655.47;4971030;28;20022;-66
2021/05/08 03:12:00;;;;;;;8.05;3.72;;;;;;;2.07;54.38;101656.50;4997737;28;20061;-67
2021/05/08 03:14:27;;;;;;;4.85;3.85;;;;;;;2.19;53.93;101654.00;4980690;28;20092;-67
2021/05/08 03:16:52;;;;;;;5.80;3.38;;;;;;;2.26;53.54;101649.75;4984400;28;20026;-67
2021/05/08 03:19:18;;;;;;;12.30;4.00;;;;;;;2.22;53.52;101650.56;4980479;28;20075;-66
2021/05/08 03:21:44;;;;;;;9.43;3.28;;;;;;;2.21;53.57;101648.84;5000641;28;20119;-66
2021/05/08 03:24:10;;;;;;;8.13;3.53;;;;;;;2.18;53.46;101647.13;4987040;28;20520;-67
2021/05/08 03:26:35;;;;;;;9.45;3.60;;;;;;;2.18;53.22;101652.28;5000870;28;20030;-67
2021/05/08 03:29:02;;;;;;;5.15;4.10;;;;;;;2.15;53.12;101649.66;4999854;28;20026;-68
2021/05/08 03:31:28;;;;;;;5.80;3.40;;;;;;;2.11;53.13;101650.50;4984024;28;20030;-65
2021/05/08 03:33:53;;;;;;;4.68;3.40;;;;;;;2.07;53.16;101648.75;5000580;28;20296;-67
2021/05/08 03:36:19;;;;;;;10.80;3.33;;;;;;;2.12;52.91;101644.50;4999280;28;20068;-65
2021/05/08 03:38:44;;;;;;;7.60;3.83;;;;;;;2.05;53.06;101650.47;4971225;28;20045;-66
2021/05/08 03:41:10;;;;;;;6.55;3.63;;;;;;;2.08;53.11;101650.47;4998600;28;20088;-66
2021/05/08 03:43:36;;;;;;;6.05;4.00;;;;;;;2.05;53.39;101653.03;5000680;28;20060;-65
2021/05/08 03:46:01;;;;;;;6.35;3.60;;;;;;;2.08;53.49;101651.31;4974768;28;20026;-66
2021/05/08 03:48:28;;;;;;;5.30;2.75;;;;;;;2.06;53.36;101652.16;4978495;28;20061;-66
2021/05/08 03:50:53;;;;;;;6.47;3.63;;;;;;;2.00;53.35;101647.84;5000373;28;20033;-66
2021/05/08 03:53:23;;;;;;;9.35;5.68;;;;;;;1.96;53.13;101646.09;4987199;28;20561;-66
2021/05/08 03:55:50;;;;;;;7.45;3.88;;;;;;;1.79;53.64;101643.34;4996995;28;20076;-65
2021/05/08 03:58:20;;;;;;;7.10;3.92;;;;;;;1.80;53.60;101647.69;5001338;28;20042;-65
2021/05/08 04:00:45;;;;;;;6.70;3.88;;;;;;;1.74;53.54;101642.47;4998585;28;20702;-66
2021/05/08 04:03:11;;;;;;;12.00;4.13;;;;;;;1.71;53.74;101642.44;4981758;28;20042;-65
2021/05/08 04:05:36;;;;;;;8.05;3.42;;;;;;;1.70;53.81;101645.84;5001278;28;20041;-66
2021/05/08 04:08:02;;;;;;;8.18;4.10;;;;;;;1.74;53.65;101642.47;5006031;28;20029;-66
2021/05/08 04:10:27;;;;;;;7.15;4.00;;;;;;;1.73;53.68;101640.75;5004526;28;20467;-66
2021/05/08 04:12:53;;;;;;;6.93;3.92;;;;;;;1.71;54.03;101639.88;4999898;28;20034;-66
2021/05/08 04:15:18;;;;;;;7.38;3.78;;;;;;;1.91;53.79;101640.03;4998695;28;20034;-66
2021/05/08 04:17:43;;;;;;;4.93;3.30;;;;;;;2.03;53.61;101641.84;4985007;28;20415;-67
2021/05/08 04:20:10;;;;;;;7.15;3.90;;;;;;;2.13;53.34;101643.63;4999002;28;20403;-72
2021/05/08 04:22:35;;;;;;;7.82;2.65;;;;;;;2.19;53.14;101642.81;4985182;28;20034;-71
2021/05/08 04:25:00;;;;;;;10.32;3.92;;;;;;;2.28;53.33;101643.75;5001058;28;20037;-71
2021/05/08 04:27:26;;;;;;;6.70;4.25;;;;;;;2.23;53.49;101645.44;5001850;28;20154;-71
2021/05/08 04:29:52;;;;;;;9.20;5.10;;;;;;;2.24;53.91;101649.75;5000494;28;20105;-65
2021/05/08 04:32:17;;;;;;;8.27;4.63;;;;;;;2.41;53.63;101649.00;4982110;28;20064;-69
2021/05/08 04:34:43;;;;;;;10.55;4.97;;;;;;;2.42;53.50;101648.13;4982837;28;20034;-68
2021/05/08 04:37:08;;;;;;;7.15;4.15;;;;;;;2.65;53.41;101643.97;4985093;28;20082;-69
2021/05/08 04:39:34;;;;;;;6.10;3.65;;;;;;;2.72;53.32;101650.91;4999188;28;20039;-70
2021/05/08 04:42:00;;;;;;;9.13;3.70;;;;;;;2.80;52.83;101647.47;5001165;28;20176;-68
2021/05/08 04:44:26;;;;;;;9.43;3.85;;;;;;;3.03;52.63;101643.28;4986863;28;20030;-67
2021/05/08 04:46:51;;;;;;;6.43;3.38;;;;;;;3.23;52.80;101647.66;4969291;28;20398;-70
2021/05/08 04:49:17;;;;;;;6.80;3.72;;;;;;;3.58;51.77;101643.47;4983749;28;20097;-69
2021/05/08 04:51:43;;;;;;;8.77;3.80;;;;;;;3.96;50.72;101640.06;4971597;28;20034;-68
2021/05/08 04:54:08;;;;;;;7.88;2.88;;;;;;;4.22;50.23;101649.50;4970193;28;20498;-68
2021/05/08 04:56:34;;;;;;;8.75;3.67;;;;;;;4.40;49.08;101639.13;4990483;28;20034;-68
2021/05/08 04:59:00;;;;;;;9.40;3.92;;;;;;;4.98;49.21;101639.84;5005797;28;20188;-70
2021/05/08 05:01:25;;;;;;;6.05;3.05;;;;;;;5.04;47.93;101645.00;5004593;28;20026;-68
2021/05/08 05:03:51;;;;;;;5.40;2.95;;;;;;;5.46;46.60;101643.91;5000620;28;20407;-69
2021/05/08 05:06:16;;;;;;;7.65;2.50;;;;;;;6.16;44.58;101644.22;5001957;28;20045;-66
2021/05/08 05:08:42;;;;;;;3.70;2.40;;;;;;;6.00;45.08;101651.28;5001024;28;20037;-67
2021/05/08 05:11:08;;;;;;;6.70;2.17;;;;;;;6.14;44.90;101645.13;5006105;28;20343;-68
2021/05/08 05:13:33;;;;;;;4.75;2.55;;;;;;;6.16;44.61;101635.59;4989951;28;20423;-69
2021/05/08 05:15:58;;;;;;;5.30;2.47;;;;;;;6.50;44.12;101638.72;5001940;28;20116;-69
2021/05/08 05:18:24;;;;;;;4.30;2.42;;;;;;;7.06;42.00;101631.13;5001376;28;20475;-66
2021/05/08 05:20:49;;;;;;;6.25;2.65;;;;;;;7.21;41.91;101637.88;4985663;28;20463;-65
2021/05/08 05:23:15;;;;;;;7.93;2.60;;;;;;;7.12;42.81;101636.25;5006527;28;20491;-67
2021/05/08 05:25:40;;;;;;;7.18;2.25;;;;;;;7.77;41.07;101637.94;4975730;28;20077;-71
2021/05/08 05:28:22;;;;;;;7.63;2.38;;;;;;;10.34;38.09;101643.84;4985010;28;20502;-67
2021/05/08 05:30:51;;;;;;;5.00;2.67;;;;;;;11.90;35.64;101633.09;4970018;28;20471;-69
2021/05/08 05:33:17;;;;;;;7.68;2.25;;;;;;;12.84;32.03;101632.44;4999486;28;20124;-68
2021/05/08 05:35:42;;;;;;;9.13;1.75;;;;;;;13.91;30.31;101638.69;5001414;28;20030;-69
2021/05/08 05:38:08;;;;;;;5.45;1.48;;;;;;;14.55;28.17;101639.50;5003510;28;20400;-69
2021/05/08 05:40:33;;;;;;;2.78;1.27;;;;;;;15.36;27.70;101634.91;5003942;28;20017;-69
2021/05/08 05:42:59;;;;;;;2.50;1.48;;;;;;;15.69;28.28;101642.09;4995061;28;20036;-66
2021/05/08 05:45:25;;;;;;;5.45;1.67;;;;;;;16.52;26.43;101643.16;5002285;28;20033;-67
2021/05/08 05:47:59;;;;;;;1.90;1.40;;;;;;;16.37;25.93;101637.72;4987087;28;20642;-71
2021/05/08 05:50:25;;;;;;;5.22;1.13;;;;;;;17.13;26.17;101641.63;4979201;28;20398;-67
2021/05/08 05:52:55;;;;;;;4.15;1.15;;;;;;;16.42;25.30;101633.09;5000719;28;20033;-67
2021/05/08 05:55:21;;;;;;;5.60;1.30;;;;;;;17.09;26.39;101638.31;4986537;28;20034;-67
2021/05/08 05:57:48;;;;;;;2.63;1.30;;;;;;;16.85;24.78;101637.03;4984038;28;20572;-70
2021/05/08 06:00:15;;;;;;;4.40;1.60;;;;;;;17.86;25.25;101636.59;4983384;28;20042;-71
2021/05/08 06:02:40;;;;;;;3.60;1.15;;;;;;;17.75;23.13;101636.38;5001606;28;20039;-70
2021/05/08 06:05:06;;;;;;;5.68;1.23;;;;;;;17.18;24.42;101631.63;4999402;28;20034;-71
2021/05/08 06:07:31;;;;;;;3.55;1.42;;;;;;;17.29;26.03;101641.59;5000168;28;20037;-66
2021/05/08 06:09:57;;;;;;;4.70;1.27;;;;;;;18.30;24.12;101638.41;4985119;28;20143;-68
2021/05/08 06:12:22;;;;;;;2.58;1.30;;;;;;;18.72;23.57;101647.28;5002796;28;20054;-69
2021/05/08 06:14:48;;;;;;;5.30;1.17;;;;;;;17.71;23.47;101642.75;4998065;28;20088;-71
2021/05/08 06:17:13;;;;;;;5.10;1.33;;;;;;;16.92;26.30;101646.31;5003027;28;20093;-67
2021/05/08 06:19:39;;;;;;;7.38;1.27;;;;;;;16.61;25.85;101653.19;5000480;28;20036;-67
2021/05/08 06:22:04;;;;;;;3.35;1.15;;;;;;;17.83;24.53;101652.63;4980013;28;20589;-69
2021/05/08 06:24:29;;;;;;;3.65;1.27;;;;;;;17.49;24.62;101653.72;5001878;28;20121;-68
2021/05/08 06:26:55;;;;;;;3.70;1.63;;;;;;;17.67;25.07;101651.81;4975311;28;20569;-68
2021/05/08 06:29:20;;;;;;;2.17;1.65;;;;;;;17.89;24.64;101651.41;5005564;28;20475;-68
2021/05/08 06:31:46;;;;;;;2.78;1.25;;;;;;;18.25;24.82;101648.38;4988149;28;20631;-67
2021/05/08 06:34:11;;;;;;;2.75;1.08;;;;;;;18.15;23.72;101652.53;4980758;28;20410;-67
2021/05/08 06:36:37;;;;;;;5.70;1.02;;;;;;;19.03;23.67;101650.66;4998914;28;20042;-67
2021/05/08 06:39:03;;;;;;;3.13;1.27;;;;;;;19.02;22.79;101638.38;4999114;28;20507;-68
2021/05/08 06:41:29;;;;;;;4.75;1.17;;;;;;;18.86;23.49;101644.63;5001948;28;20029;-67
2021/05/08 06:43:54;;;;;;;5.45;0.90;;;;;;;19.45;22.16;101630.28;5004300;28;20414;-68
2021/05/08 06:46:19;;;;;;;1.65;0.70;;;;;;;18.24;23.79;101644.06;4980730;28;20565;-69
2021/05/08 06:48:45;;;;;;;3.17;1.38;;;;;;;18.21;24.37;101650.38;4983466;28;20406;-69
2021/05/08 06:51:10;;;;;;;3.42;1.13;;;;;;;19.39;23.06;101643.94;4998192;28;20041;-69
2021/05/08 06:53:36;;;;;;;2.53;0.60;;;;;;;20.07;21.76;101649.09;4998823;28;20065;-67
2021/05/08 06:56:02;;;;;;;6.38;1.27;;;;;;;16.69;25.92;101647.50;5001800;28;20029;-65
2021/05/08 06:58:28;;;;;;;4.28;1.30;;;;;;;17.48;24.62;101652.88;5000880;28;20437;-66
2021/05/08 07:00:54;;;;;;;4.80;1.17;;;;;;;16.85;26.70;101647.59;4983481;28;20065;-65
2021/05/08 07:03:19;;;;;;;3.63;1.10;;;;;;;17.05;26.48;101652.63;4986345;28;20028;-65
2021/05/08 07:05:45;;;;;;;3.75;1.35;;;;;;;17.55;25.31;101651.56;5004341;28;20091;-65
2021/05/08 07:08:11;;;;;;;4.75;1.63;;;;;;;16.73;26.14;101647.28;4999994;28;20133;-65
2021/05/08 07:10:50;;;;;;;3.88;0.73;;;;;;;17.11;25.85;101657.53;5001579;28;20049;-64
2021/05/08 07:13:17;;;;;;;2.83;0.70;;;;;;;16.81;25.34;101653.00;4996607;28;20430;-66
2021/05/08 07:15:42;;;;;;;5.25;0.43;;;;;;;16.21;26.06;101652.66;4983384;28;20021;-63
2021/05/08 07:18:09;;;;;;;4.40;1.40;;;;;;;16.06;26.15;101650.81;4996832;28;20407;-65
2021/05/08 07:20:36;;;;;;;3.45;1.05;;;;;;;15.79;26.42;101645.94;4997454;28;20029;-64
2021/05/08 07:23:02;;;;;;;3.28;0.90;;;;;;;14.62;27.76;101659.34;4998076;28;20096;-66
2021/05/08 07:25:29;;;;;;;5.68;0.90;;;;;;;14.24;28.49;101651.31;4996517;28;20121;-64
2021/05/08 07:28:09;;;;;;;4.00;1.30;;;;;;;15.01;27.12;101644.44;4999930;28;20068;-64
2021/05/08 07:30:35;;;;;;;3.35;0.93;;;;;;;16.21;26.12;101636.84;5004248;28;20513;-64
2021/05/08 07:33:01;;;;;;;3.20;1.02;;;;;;;15.80;26.47;101648.53;4997318;28;20053;-65
2021/05/08 07:35:27;;;;;;;2.88;1.30;;;;;;;15.14;26.44;101637.66;4983508;28;20072;-65
2021/05/08 07:37:52;;;;;;;2.85;1.35;;;;;;;16.17;25.90;101641.41;5003640;28;20103;-65
2021/05/08 07:40:18;;;;;;;5.47;1.42;;;;;;;18.08;24.31;101638.81;4997731;28;20030;-66
2021/05/08 07:42:43;;;;;;;5.30;1.60;;;;;;;17.13;24.06;101642.47;4996922;28;20385;-65
2021/05/08 07:45:10;;;;;;;3.90;1.60;;;;;;;17.20;24.28;101638.56;4997492;28;20052;-65
2021/05/08 07:47:36;;;;;;;1.40;1.00;;;;;;;15.75;26.17;101641.75;4984730;28;20034;-65
2021/05/08 07:50:03;;;;;;;3.45;1.45;;;;;;;15.46;26.64;101643.19;4995575;28;20061;-65
2021/05/08 07:52:29;;;;;;;3.75;1.27;;;;;;;13.06;29.85;101648.22;4998477;28;20123;-65
2021/05/08 07:54:54;;;;;;;3.20;1.85;;;;;;;14.09;28.77;101646.72;5002179;28;20297;-65
2021/05/08 07:57:19;;;;;;;3.03;1.40;;;;;;;14.65;28.41;101651.31;4999021;28;20030;-65
2021/05/08 07:59:45;;;;;;;3.63;1.10;;;;;;;17.45;24.42;101643.31;4998982;28;20463;-65
2021/05/08 08:02:11;;;;;;;5.72;2.00;;;;;;;17.93;23.07;101639.72;4998740;28;20036;-65
2021/05/08 08:04:36;;;;;;;2.67;1.30;;;;;;;18.04;22.90;101632.84;4997338;28;20038;-65
2021/05/08 08:07:02;;;;;;;3.15;0.90;;;;;;;18.76;22.75;101632.03;4998614;28;20551;-66
2021/05/08 08:09:27;;;;;;;4.53;1.23;;;;;;;16.62;24.22;101624.09;4999939;28;20045;-65
2021/05/08 08:11:53;;;;;;;2.67;1.45;;;;;;;13.54;29.34;101631.47;4978607;28;20124;-64
2021/05/08 08:14:19;;;;;;;2.97;1.20;;;;;;;12.04;32.46;101640.47;4995835;28;20049;-65
2021/05/08 08:16:45;;;;;;;2.47;1.08;;;;;;;11.16;31.62;101626.72;5000612;28;20029;-65
2021/05/08 08:19:10;;;;;;;4.80;1.88;;;;;;;11.44;32.26;101627.56;4986619;28;20116;-64
2021/05/08 08:21:36;;;;;;;1.45;1.08;;;;;;;11.77;32.17;101614.31;4997406;28;20026;-64
2021/05/08 08:24:01;;;;;;;2.97;1.27;;;;;;;10.30;34.02;101626.50;4982747;28;20704;-63
2021/05/08 08:26:27;;;;;;;4.28;1.20;;;;;;;11.33;31.62;101616.59;5004577;28;20065;-65
2021/05/08 08:28:52;;;;;;;6.57;1.15;;;;;;;12.01;31.03;101606.53;5001550;28;20034;-64
2021/05/08 08:31:18;;;;;;;4.45;0.88;;;;;;;12.28;28.97;101608.19;5003596;28;20330;-62
2021/05/08 08:33:44;;;;;;;2.22;0.60;;;;;;;12.07;29.95;101609.81;5005088;28;20036;-64
2021/05/08 08:36:09;;;;;;;5.45;1.38;;;;;;;12.43;30.27;101600.69;5006073;28;20041;-64
2021/05/08 08:38:35;;;;;;;2.58;1.38;;;;;;;12.55;30.43;101595.00;4975421;28;20552;-64
2021/05/08 08:41:01;;;;;;;1.50;1.15;;;;;;;14.28;28.03;101589.81;4987414;28;20502;-65
2021/05/08 08:43:27;;;;;;;6.03;1.48;;;;;;;13.65;28.07;101587.25;5002829;28;20042;-64
2021/05/08 08:45:53;;;;;;;2.28;1.10;;;;;;;13.86;28.08;101595.16;4999404;28;20509;-64
2021/05/08 08:48:20;;;;;;;2.53;1.58;;;;;;;13.60;28.53;101588.34;4979624;28;20222;-64
2021/05/08 08:50:48;;;;;;;2.10;0.90;;;;;;;14.93;26.75;101586.91;4999997;28;20038;-65
2021/05/08 08:53:15;;;;;;;2.88;1.73;;;;;;;14.74;26.32;101582.47;4999572;28;20314;-64
2021/05/08 08:55:49;;;;;;;2.28;1.48;;;;;;;13.80;27.59;101577.84;5000793;28;20025;-63
2021/05/08 08:58:15;;;;;;;2.00;1.27;;;;;;;14.87;26.75;101571.38;4998217;28;20052;-64
2021/05/08 09:00:41;;;;;;;3.78;1.33;;;;;;;15.75;25.22;101567.97;4999258;28;20149;-65
2021/05/08 09:03:06;;;;;;;1.65;1.08;;;;;;;13.68;27.72;101571.34;4994191;28;20045;-64
2021/05/08 09:05:31;;;;;;;7.97;1.75;;;;;;;13.86;27.64;101571.50;4984290;28;20050;-64
2021/05/08 09:08:01;;;;;;;3.25;1.00;;;;;;;15.05;26.01;101567.88;5001011;28;20033;-64
2021/05/08 09:10:31;;;;;;;3.15;1.70;;;;;;;14.73;26.51;101559.72;4967209;28;20446;-64
2021/05/08 09:12:59;;;;;;;1.90;1.00;;;;;;;14.42;26.55;101564.69;4983428;28;20408;-64
2021/05/08 09:15:29;;;;;;;4.60;0.90;;;;;;;14.88;26.72;101568.69;4997909;28;20034;-64
2021/05/08 09:17:54;;;;;;;3.40;0.90;;;;;;;14.95;27.08;101559.56;5000759;28;20440;-65
2021/05/08 09:20:20;;;;;;;2.38;0.93;;;;;;;14.66;27.56;101558.31;5002882;28;20048;-64
2021/05/08 09:22:46;;;;;;;3.75;1.10;;;;;;;15.25;26.79;101555.56;5002620;28;20069;-64
2021/05/08 09:25:16;;;;;;;4.88;1.65;;;;;;;15.04;26.20;101555.66;5001416;28;20150;-64
2021/05/08 09:27:48;;;;;;;4.15;2.30;;;;;;;15.05;26.47;101553.84;5001117;28;20272;-64
2021/05/08 09:30:14;;;;;;;4.25;1.42;;;;;;;13.38;29.99;101557.69;4997182;28;20033;-65
2021/05/08 09:32:41;;;;;;;3.78;1.23;;;;;;;14.75;27.57;101547.34;4998851;28;20041;-64
2021/05/08 09:35:24;;;;;;;2.67;1.48;;;;;;;14.48;27.20;101552.13;4982832;28;20103;-64
2021/05/08 09:38:04;;;;;;;3.00;1.80;;;;;;;15.26;26.94;101544.09;5001126;28;20041;-65
2021/05/08 09:40:30;;;;;;;3.70;1.70;;;;;;;15.20;26.83;101537.31;4999289;28;20479;-65
2021/05/08 09:42:58;;;;;;;6.82;2.25;;;;;;;13.04;28.82;101534.59;4982202;28;20412;-65
2021/05/08 09:45:25;;;;;;;3.92;1.70;;;;;;;14.39;28.63;101527.97;4999746;28;20034;-64
2021/05/08 09:47:52;;;;;;;4.88;2.40;;;;;;;14.05;28.02;101524.22;4996324;28;20487;-65
2021/05/08 09:50:22;;;;;;;4.07;1.88;;;;;;;14.80;28.39;101527.88;4997417;28;20038;-65
2021/05/08 09:52:49;;;;;;;3.33;2.17;;;;;;;14.87;27.86;101513.47;5000231;28;20029;-65
2021/05/08 09:55:16;;;;;;;5.07;2.15;;;;;;;15.13;27.32;101509.59;4980931;28;20595;-64
2021/05/08 09:57:55;;;;;;;4.07;2.17;;;;;;;14.95;26.13;101495.56;4976934;28;20037;-64
2021/05/08 10:00:40;;;;;;;4.70;2.08;;;;;;;14.41;26.14;101505.13;4967708;28;20037;-64
2021/05/08 10:03:12;;;;;;;5.00;3.03;;;;;;;13.91;27.34;101496.78;4985728;28;20046;-64
2021/05/08 10:05:39;;;;;;;2.78;1.98;;;;;;;13.76;27.15;101496.63;4982727;28;20041;-64
2021/05/08 10:08:05;;;;;;;3.63;1.92;;;;;;;14.12;27.66;101487.09;5002242;28;20356;-65
2021/05/08 10:10:32;;;;;;;3.85;2.15;;;;;;;14.09;27.00;101481.13;4999822;28;20116;-64
2021/05/08 10:12:58;;;;;;;6.22;2.33;;;;;;;14.23;27.00;101480.50;4999072;28;20034;-64
2021/05/08 10:15:24;;;;;;;6.72;2.47;;;;;;;14.64;27.04;101475.13;4998715;28;20030;-64
2021/05/08 10:17:51;;;;;;;7.75;2.88;;;;;;;15.21;26.49;101462.66;4998315;28;20034;-68
2021/05/08 10:20:19;;;;;;;4.70;2.58;;;;;;;15.24;25.29;101456.41;4998182;28;20370;-65
2021/05/08 10:22:54;;;;;;;3.67;1.75;;;;;;;15.86;25.35;101441.75;4999919;28;20108;-67
2021/05/08 10:25:20;;;;;;;6.47;2.53;;;;;;;16.03;24.49;101442.69;4981916;28;20037;-66
2021/05/08 10:27:46;;;;;;;3.15;2.45;;;;;;;16.23;24.80;101447.72;4998870;28;20030;-67
2021/05/08 10:30:14;;;;;;;2.50;2.00;;;;;;;14.96;24.32;101436.69;4998927;28;20528;-69
2021/05/08 10:32:43;;;;;;;3.80;1.77;;;;;;;14.50;25.25;101441.56;4983809;28;20065;-69
2021/05/08 10:35:11;;;;;;;5.20;2.60;;;;;;;14.22;25.30;101432.31;5001349;28;20022;-66
2021/05/08 10:37:37;;;;;;;3.53;2.08;;;;;;;14.17;24.98;101422.97;4997286;28;20340;-66
2021/05/08 10:40:03;;;;;;;4.32;2.00;;;;;;;14.73;25.25;101433.44;4988565;28;20490;-67
2021/05/08 10:42:35;;;;;;;7.10;2.13;;;;;;;14.96;24.98;101418.28;4983818;28;20099;-67
2021/05/08 10:45:05;;;;;;;7.20;2.03;;;;;;;14.32;26.05;101436.25;4999547;28;20433;-66
2021/05/08 10:47:52;;;;;;;5.55;2.55;;;;;;;14.70;24.47;101425.69;4995560;28;20034;-67
2021/05/08 10:50:21;;;;;;;3.22;2.33;;;;;;;14.85;25.18;101412.69;4981048;28;20157;-66
2021/05/08 10:52:58;;;;;;;6.55;1.73;;;;;;;14.89;24.38;101406.34;5000915;28;20049;-70
2021/05/08 10:55:25;;;;;;;5.05;1.33;;;;;;;15.35;25.31;101404.06;4997439;28;20058;-66
2021/05/08 10:58:19;;;;;;;12.50;2.40;;;;;;;14.97;23.44;101393.69;4998201;28;20052;-66
2021/05/08 11:00:46;;;;;;;4.85;2.45;;;;;;;14.85;23.85;101392.50;4984795;28;20034;-67
2021/05/08 11:03:12;;;;;;;2.50;1.40;;;;;;;15.18;22.88;101387.31;4966501;28;20042;-66
2021/05/08 11:05:50;;;;;;;6.65;2.90;;;;;;;13.42;24.71;101393.84;4978277;28;20415;-66
2021/05/08 11:08:24;;;;;;;3.40;2.95;;;;;;;14.18;25.23;101377.34;4981727;28;20034;-66
2021/05/08 11:11:12;;;;;;;6.07;2.85;;;;;;;15.26;24.65;101372.91;4973024;28;20038;-66
2021/05/08 11:13:40;;;;;;;3.75;2.83;;;;;;;16.33;23.81;101377.69;4985070;28;20029;-67
2021/05/08 11:16:05;;;;;;;5.18;2.03;;;;;;;16.26;22.68;101376.31;4998331;28;20048;-66
2021/05/08 11:18:31;;;;;;;3.67;2.70;;;;;;;14.87;23.00;101376.63;4998034;28;20030;-69
2021/05/08 11:20:58;;;;;;;5.45;2.78;;;;;;;15.74;23.18;101366.84;4998219;28;20058;-67
2021/05/08 11:23:23;;;;;;;2.67;1.95;;;;;;;15.94;22.31;101355.19;4995955;28;20030;-68
2021/05/08 11:25:49;;;;;;;8.57;2.55;;;;;;;16.23;22.41;101360.66;4995772;28;20523;-68
2021/05/08 11:28:15;;;;;;;5.65;2.33;;;;;;;16.29;22.67;101354.22;4980517;28;20053;-67